sensor_id;sensor_type;location;lat;lon;timestamp;temperature;humidity
9527;DHT22;4802;51.494;6.770;2022-11-20T00:00:54;-0.60;1.00
9527;DHT22;4802;51.494;6.770;2022-11-20T00:03:27;-0.60;1.00
9527;DHT22;4802;51.494;6.770;2022-11-20T00:16:52;-0.50;1.00
9527;DHT22;4802;51.494;6.770;2022-11-20T01:05:51;-0.30;1.00
9527;DHT22;4802;51.494;6.770;2022-11-20T01:08:25;-0.40;1.00
9527;DHT22;4802;51.494;6.770;2022-11-20T01:11:06;-0.40;1.00
9527;DHT22;4802;51.494;6.770;2022-11-20T01:13:38;-0.40;1.00
9527;DHT22;4802;51.494;6.770;2022-11-20T01:16:15;-0.40;1.00
9527;DHT22;4802;51.494;6.770;2022-11-20T01:18:48;-0.40;1.00
9527;DHT22;4802;51.494;6.770;2022-11-20T01:21:26;-0.40;1.00
9527;DHT22;4802;51.494;6.770;2022-11-20T01:24:01;-0.50;1.00
9527;DHT22;4802;51.494;6.770;2022-11-20T01:26:35;-0.50;1.00
9527;DHT22;4802;51.494;6.770;2022-11-20T01:29:13;-0.50;1.00
9527;DHT22;4802;51.494;6.770;2022-11-20T01:31:42;-0.40;1.00
9527;DHT22;4802;51.494;6.770;2022-11-20T01:34:14;-0.40;1.00
9527;DHT22;4802;51.494;6.770;2022-11-20T01:36:46;-0.50;1.00
9527;DHT22;4802;51.494;6.770;2022-11-20T01:39:19;-0.40;1.00
9527;DHT22;4802;51.494;6.770;2022-11-20T01:41:50;-0.40;1.00
9527;DHT22;4802;51.494;6.770;2022-11-20T01:44:53;-0.40;1.00
9527;DHT22;4802;51.494;6.770;2022-11-20T01:47:33;-0.40;1.00
9527;DHT22;4802;51.494;6.770;2022-11-20T01:50:09;-0.40;1.00
9527;DHT22;4802;51.494;6.770;2022-11-20T01:52:44;-0.50;1.00
9527;DHT22;4802;51.494;6.770;2022-11-20T01:55:17;-0.50;1.00
9527;DHT22;4802;51.494;6.770;2022-11-20T01:57:48;-0.60;1.00
9527;DHT22;4802;51.494;6.770;2022-11-20T02:00:41;-0.70;1.00
9527;DHT22;4802;51.494;6.770;2022-11-20T02:03:20;-0.70;1.00
9527;DHT22;4802;51.494;6.770;2022-11-20T02:05:53;-0.70;1.00
9527;DHT22;4802;51.494;6.770;2022-11-20T02:08:26;-0.80;1.00
9527;DHT22;4802;51.494;6.770;2022-11-20T02:10:57;-0.70;1.00
9527;DHT22;4802;51.494;6.770;2022-11-20T02:13:29;-0.60;1.00
9527;DHT22;4802;51.494;6.770;2022-11-20T02:16:21;-0.80;1.00
9527;DHT22;4802;51.494;6.770;2022-11-20T02:18:54;-0.50;1.00
9527;DHT22;4802;51.494;6.770;2022-11-20T02:21:30;-0.40;1.00
9527;DHT22;4802;51.494;6.770;2022-11-20T02:24:08;-0.30;1.00
9527;DHT22;4802;51.494;6.770;2022-11-20T02:26:46;-0.10;1.00
9527;DHT22;4802;51.494;6.770;2022-11-20T02:29:23;-0.50;1.00
9527;DHT22;4802;51.494;6.770;2022-11-20T02:31:54;-0.10;1.00
9527;DHT22;4802;51.494;6.770;2022-11-20T02:34:27;-0.20;1.00
9527;DHT22;4802;51.494;6.770;2022-11-20T02:36:56;-0.10;1.00
9527;DHT22;4802;51.494;6.770;2022-11-20T02:39:28;-0.10;1.00
9527;DHT22;4802;51.494;6.770;2022-11-20T02:41:57;0.00;1.00
9527;DHT22;4802;51.494;6.770;2022-11-20T02:44:26;0.00;1.00
9527;DHT22;4802;51.494;6.770;2022-11-20T02:47:00;0.00;1.00
9527;DHT22;4802;51.494;6.770;2022-11-20T02:49:30;0.10;1.00
9527;DHT22;4802;51.494;6.770;2022-11-20T02:51:59;0.10;1.00
9527;DHT22;4802;51.494;6.770;2022-11-20T02:54:35;0.30;1.00
9527;DHT22;4802;51.494;6.770;2022-11-20T02:57:04;0.30;1.00
9527;DHT22;4802;51.494;6.770;2022-11-20T02:59:33;0.40;1.00
9527;DHT22;4802;51.494;6.770;2022-11-20T03:02:04;0.50;1.00
9527;DHT22;4802;51.494;6.770;2022-11-20T03:04:35;0.50;1.00
9527;DHT22;4802;51.494;6.770;2022-11-20T03:07:04;0.50;1.00
9527;DHT22;4802;51.494;6.770;2022-11-20T03:09:35;0.50;1.00
9527;DHT22;4802;51.494;6.770;2022-11-20T03:12:04;0.40;1.00
9527;DHT22;4802;51.494;6.770;2022-11-20T03:14:34;0.30;1.00
9527;DHT22;4802;51.494;6.770;2022-11-20T03:17:03;0.30;1.00
9527;DHT22;4802;51.494;6.770;2022-11-20T03:19:32;0.20;1.00
9527;DHT22;4802;51.494;6.770;2022-11-20T03:22:01;0.20;1.00
9527;DHT22;4802;51.494;6.770;2022-11-20T03:24:31;0.30;1.00
9527;DHT22;4802;51.494;6.770;2022-11-20T03:27:02;0.40;1.00
9527;DHT22;4802;51.494;6.770;2022-11-20T03:29:31;0.40;1.00
9527;DHT22;4802;51.494;6.770;2022-11-20T03:32:01;0.50;1.00
9527;DHT22;4802;51.494;6.770;2022-11-20T03:34:30;0.50;1.00
9527;DHT22;4802;51.494;6.770;2022-11-20T03:36:59;0.50;1.00
9527;DHT22;4802;51.494;6.770;2022-11-20T03:39:28;0.50;1.00
9527;DHT22;4802;51.494;6.770;2022-11-20T03:41:57;0.00;1.00
9527;DHT22;4802;51.494;6.770;2022-11-20T03:44:29;0.50;1.00
9527;DHT22;4802;51.494;6.770;2022-11-20T03:46:58;0.50;1.00
9527;DHT22;4802;51.494;6.770;2022-11-20T03:49:27;0.70;1.00
9527;DHT22;4802;51.494;6.770;2022-11-20T03:51:56;0.70;1.00
9527;DHT22;4802;51.494;6.770;2022-11-20T03:54:26;0.70;1.00
9527;DHT22;4802;51.494;6.770;2022-11-20T03:56:56;0.70;1.00
9527;DHT22;4802;51.494;6.770;2022-11-20T03:59:25;0.70;1.00
9527;DHT22;4802;51.494;6.770;2022-11-20T04:01:56;0.70;1.00
9527;DHT22;4802;51.494;6.770;2022-11-20T04:04:25;0.90;1.00
9527;DHT22;4802;51.494;6.770;2022-11-20T04:06:54;0.80;1.00
9527;DHT22;4802;51.494;6.770;2022-11-20T04:09:23;0.70;1.00
9527;DHT22;4802;51.494;6.770;2022-11-20T04:11:52;0.80;1.00
9527;DHT22;4802;51.494;6.770;2022-11-20T04:14:22;0.90;1.00
9527;DHT22;4802;51.494;6.770;2022-11-20T04:16:51;1.00;1.00
9527;DHT22;4802;51.494;6.770;2022-11-20T04:19:23;1.10;1.00
9527;DHT22;4802;51.494;6.770;2022-11-20T04:21:53;1.00;1.00
9527;DHT22;4802;51.494;6.770;2022-11-20T04:24:22;1.00;1.00
9527;DHT22;4802;51.494;6.770;2022-11-20T04:26:51;1.00;1.00
9527;DHT22;4802;51.494;6.770;2022-11-20T04:29:20;1.00;1.00
9527;DHT22;4802;51.494;6.770;2022-11-20T04:31:50;1.00;1.00
9527;DHT22;4802;51.494;6.770;2022-11-20T04:34:19;1.00;1.00
9527;DHT22;4802;51.494;6.770;2022-11-20T04:36:49;1.00;1.00
9527;DHT22;4802;51.494;6.770;2022-11-20T04:39:18;0.90;1.00
9527;DHT22;4802;51.494;6.770;2022-11-20T04:41:47;0.90;1.00
9527;DHT22;4802;51.494;6.770;2022-11-20T04:44:38;0.90;1.00
9527;DHT22;4802;51.494;6.770;2022-11-20T04:47:08;0.90;1.00
9527;DHT22;4802;51.494;6.770;2022-11-20T04:49:36;0.90;1.00
9527;DHT22;4802;51.494;6.770;2022-11-20T04:52:07;0.80;1.00
9527;DHT22;4802;51.494;6.770;2022-11-20T04:54:37;0.90;1.00
9527;DHT22;4802;51.494;6.770;2022-11-20T04:57:06;1.00;1.00
9527;DHT22;4802;51.494;6.770;2022-11-20T04:59:40;1.00;1.00
9527;DHT22;4802;51.494;6.770;2022-11-20T05:02:10;0.90;1.00
9527;DHT22;4802;51.494;6.770;2022-11-20T05:04:40;1.10;1.00
9527;DHT22;4802;51.494;6.770;2022-11-20T05:07:11;1.20;1.00
9527;DHT22;4802;51.494;6.770;2022-11-20T05:09:41;1.20;1.00
9527;DHT22;4802;51.494;6.770;2022-11-20T05:12:10;1.30;1.00
9527;DHT22;4802;51.494;6.770;2022-11-20T05:14:40;1.40;1.00
9527;DHT22;4802;51.494;6.770;2022-11-20T05:17:10;1.30;1.00
9527;DHT22;4802;51.494;6.770;2022-11-20T05:19:43;1.30;1.00
9527;DHT22;4802;51.494;6.770;2022-11-20T05:22:20;1.30;1.00
9527;DHT22;4802;51.494;6.770;2022-11-20T05:24:49;1.40;1.00
9527;DHT22;4802;51.494;6.770;2022-11-20T05:27:20;1.40;1.00
9527;DHT22;4802;51.494;6.770;2022-11-20T05:29:49;1.40;1.00
9527;DHT22;4802;51.494;6.770;2022-11-20T05:32:19;1.50;1.00
9527;DHT22;4802;51.494;6.770;2022-11-20T05:34:53;1.50;1.00
9527;DHT22;4802;51.494;6.770;2022-11-20T05:37:24;1.50;1.00
9527;DHT22;4802;51.494;6.770;2022-11-20T05:39:53;1.50;1.00
9527;DHT22;4802;51.494;6.770;2022-11-20T05:42:22;1.50;1.00
9527;DHT22;4802;51.494;6.770;2022-11-20T05:45:04;1.40;1.00
9527;DHT22;4802;51.494;6.770;2022-11-20T05:47:34;1.40;1.00
9527;DHT22;4802;51.494;6.770;2022-11-20T05:50:04;1.40;1.00
9527;DHT22;4802;51.494;6.770;2022-11-20T05:52:35;1.40;1.00
9527;DHT22;4802;51.494;6.770;2022-11-20T05:55:05;1.50;1.00
9527;DHT22;4802;51.494;6.770;2022-11-20T05:57:35;1.50;1.00
9527;DHT22;4802;51.494;6.770;2022-11-20T06:00:06;1.50;1.00
9527;DHT22;4802;51.494;6.770;2022-11-20T06:02:37;1.50;1.00
9527;DHT22;4802;51.494;6.770;2022-11-20T06:05:06;1.40;1.00
9527;DHT22;4802;51.494;6.770;2022-11-20T06:07:38;1.50;1.00
9527;DHT22;4802;51.494;6.770;2022-11-20T06:10:09;1.40;1.00
9527;DHT22;4802;51.494;6.770;2022-11-20T06:12:39;1.40;1.00
9527;DHT22;4802;51.494;6.770;2022-11-20T06:15:10;1.40;1.00
9527;DHT22;4802;51.494;6.770;2022-11-20T06:17:38;1.40;1.00
9527;DHT22;4802;51.494;6.770;2022-11-20T06:20:11;1.40;1.00
9527;DHT22;4802;51.494;6.770;2022-11-20T06:22:42;1.40;1.00
9527;DHT22;4802;51.494;6.770;2022-11-20T06:25:16;1.30;1.00
9527;DHT22;4802;51.494;6.770;2022-11-20T06:27:45;1.30;1.00
9527;DHT22;4802;51.494;6.770;2022-11-20T06:30:14;1.20;1.00
9527;DHT22;4802;51.494;6.770;2022-11-20T06:32:44;1.10;1.00
9527;DHT22;4802;51.494;6.770;2022-11-20T06:35:13;1.10;1.00
9527;DHT22;4802;51.494;6.770;2022-11-20T06:37:45;1.00;1.00
9527;DHT22;4802;51.494;6.770;2022-11-20T06:40:14;0.90;1.00
9527;DHT22;4802;51.494;6.770;2022-11-20T06:42:44;1.00;1.00
9527;DHT22;4802;51.494;6.770;2022-11-20T06:45:13;0.90;1.00
9527;DHT22;4802;51.494;6.770;2022-11-20T06:47:42;0.90;1.00
9527;DHT22;4802;51.494;6.770;2022-11-20T06:50:12;0.80;1.00
9527;DHT22;4802;51.494;6.770;2022-11-20T06:52:41;0.80;1.00
9527;DHT22;4802;51.494;6.770;2022-11-20T06:55:12;0.80;1.00
9527;DHT22;4802;51.494;6.770;2022-11-20T06:57:41;0.80;1.00
9527;DHT22;4802;51.494;6.770;2022-11-20T07:00:11;0.80;1.00
9527;DHT22;4802;51.494;6.770;2022-11-20T07:02:41;0.60;1.00
9527;DHT22;4802;51.494;6.770;2022-11-20T07:05:10;0.80;10.70
9527;DHT22;4802;51.494;6.770;2022-11-20T07:07:40;0.90;2.00
9527;DHT22;4802;51.494;6.770;2022-11-20T07:10:12;0.50;2.10
9527;DHT22;4802;51.494;6.770;2022-11-20T07:12:41;1.10;1.00
9527;DHT22;4802;51.494;6.770;2022-11-20T07:15:10;1.20;1.00
9527;DHT22;4802;51.494;6.770;2022-11-20T07:17:39;1.30;1.00
9527;DHT22;4802;51.494;6.770;2022-11-20T07:20:09;1.10;1.00
9527;DHT22;4802;51.494;6.770;2022-11-20T07:22:38;1.40;1.00
9527;DHT22;4802;51.494;6.770;2022-11-20T07:25:08;1.60;1.00
9527;DHT22;4802;51.494;6.770;2022-11-20T07:27:40;1.60;1.00
9527;DHT22;4802;51.494;6.770;2022-11-20T07:30:12;1.70;1.00
9527;DHT22;4802;51.494;6.770;2022-11-20T07:32:46;1.70;1.00
9527;DHT22;4802;51.494;6.770;2022-11-20T07:35:16;1.50;1.00
9527;DHT22;4802;51.494;6.770;2022-11-20T07:37:48;1.60;1.00
9527;DHT22;4802;51.494;6.770;2022-11-20T07:40:17;1.60;1.00
9527;DHT22;4802;51.494;6.770;2022-11-20T07:42:49;1.90;1.00
9527;DHT22;4802;51.494;6.770;2022-11-20T07:45:19;1.50;1.00
9527;DHT22;4802;51.494;6.770;2022-11-20T07:47:49;1.40;1.00
9527;DHT22;4802;51.494;6.770;2022-11-20T07:50:29;1.40;1.00
9527;DHT22;4802;51.494;6.770;2022-11-20T07:53:03;1.40;1.00
9527;DHT22;4802;51.494;6.770;2022-11-20T07:55:33;1.30;1.00
9527;DHT22;4802;51.494;6.770;2022-11-20T07:58:03;1.30;1.00
9527;DHT22;4802;51.494;6.770;2022-11-20T08:00:32;1.30;1.00
9527;DHT22;4802;51.494;6.770;2022-11-20T08:03:03;1.30;1.00
9527;DHT22;4802;51.494;6.770;2022-11-20T08:05:32;1.30;1.00
9527;DHT22;4802;51.494;6.770;2022-11-20T08:08:02;1.40;1.00
9527;DHT22;4802;51.494;6.770;2022-11-20T08:10:30;1.40;1.00
9527;DHT22;4802;51.494;6.770;2022-11-20T08:13:00;1.50;1.00
9527;DHT22;4802;51.494;6.770;2022-11-20T08:15:50;1.60;1.00
9527;DHT22;4802;51.494;6.770;2022-11-20T08:18:19;1.50;1.00
9527;DHT22;4802;51.494;6.770;2022-11-20T08:21:01;1.70;1.00
9527;DHT22;4802;51.494;6.770;2022-11-20T08:23:30;1.80;1.00
9527;DHT22;4802;51.494;6.770;2022-11-20T08:25:59;2.00;1.00
9527;DHT22;4802;51.494;6.770;2022-11-20T08:28:28;2.20;1.00
9527;DHT22;4802;51.494;6.770;2022-11-20T08:31:03;2.30;1.00
9527;DHT22;4802;51.494;6.770;2022-11-20T08:33:33;2.50;1.00
9527;DHT22;4802;51.494;6.770;2022-11-20T08:36:04;2.50;1.00
9527;DHT22;4802;51.494;6.770;2022-11-20T08:38:36;2.70;1.00
9527;DHT22;4802;51.494;6.770;2022-11-20T08:41:06;2.80;1.00
9527;DHT22;4802;51.494;6.770;2022-11-20T08:43:56;2.80;1.00
9527;DHT22;4802;51.494;6.770;2022-11-20T08:46:32;2.80;1.00
9527;DHT22;4802;51.494;6.770;2022-11-20T08:49:07;2.30;1.00
9527;DHT22;4802;51.494;6.770;2022-11-20T08:51:38;2.70;1.00
9527;DHT22;4802;51.494;6.770;2022-11-20T08:54:09;2.80;1.00
9527;DHT22;4802;51.494;6.770;2022-11-20T08:56:41;3.00;1.00
9527;DHT22;4802;51.494;6.770;2022-11-20T08:59:12;3.30;1.00
9527;DHT22;4802;51.494;6.770;2022-11-20T09:02:05;3.40;1.00
9527;DHT22;4802;51.494;6.770;2022-11-20T09:04:34;3.30;1.00
9527;DHT22;4802;51.494;6.770;2022-11-20T09:07:05;3.40;1.00
9527;DHT22;4802;51.494;6.770;2022-11-20T09:09:37;3.60;1.00
9527;DHT22;4802;51.494;6.770;2022-11-20T09:12:08;3.40;1.00
9527;DHT22;4802;51.494;6.770;2022-11-20T09:14:37;3.50;1.00
9527;DHT22;4802;51.494;6.770;2022-11-20T09:17:09;3.60;1.00
9527;DHT22;4802;51.494;6.770;2022-11-20T09:19:41;3.70;1.00
9527;DHT22;4802;51.494;6.770;2022-11-20T09:22:14;3.60;1.00
9527;DHT22;4802;51.494;6.770;2022-11-20T09:24:43;3.40;1.00
9527;DHT22;4802;51.494;6.770;2022-11-20T09:27:13;3.40;1.00
9527;DHT22;4802;51.494;6.770;2022-11-20T09:29:43;3.40;1.00
9527;DHT22;4802;51.494;6.770;2022-11-20T09:32:15;3.50;1.00
9527;DHT22;4802;51.494;6.770;2022-11-20T09:34:46;3.70;1.00
9527;DHT22;4802;51.494;6.770;2022-11-20T09:37:15;4.00;1.00
9527;DHT22;4802;51.494;6.770;2022-11-20T09:39:45;4.20;1.00
9527;DHT22;4802;51.494;6.770;2022-11-20T09:42:25;4.40;1.00
9527;DHT22;4802;51.494;6.770;2022-11-20T09:45:21;4.80;1.00
9527;DHT22;4802;51.494;6.770;2022-11-20T09:48:17;4.90;1.00
9527;DHT22;4802;51.494;6.770;2022-11-20T09:50:53;5.70;1.00
9527;DHT22;4802;51.494;6.770;2022-11-20T09:53:31;6.00;1.00
9527;DHT22;4802;51.494;6.770;2022-11-20T09:56:10;6.30;1.00
9527;DHT22;4802;51.494;6.770;2022-11-20T09:58:50;6.40;1.00
9527;DHT22;4802;51.494;6.770;2022-11-20T10:01:26;6.50;1.00
9527;DHT22;4802;51.494;6.770;2022-11-20T10:04:02;6.80;1.00
9527;DHT22;4802;51.494;6.770;2022-11-20T10:06:37;7.00;1.00
9527;DHT22;4802;51.494;6.770;2022-11-20T10:09:38;6.90;1.00
9527;DHT22;4802;51.494;6.770;2022-11-20T10:12:17;6.70;1.00
9527;DHT22;4802;51.494;6.770;2022-11-20T10:15:00;6.60;1.00
9527;DHT22;4802;51.494;6.770;2022-11-20T10:17:57;8.30;1.00
9527;DHT22;4802;51.494;6.770;2022-11-20T10:20:40;6.60;1.00
9527;DHT22;4802;51.494;6.770;2022-11-20T10:23:26;7.10;1.00
9527;DHT22;4802;51.494;6.770;2022-11-20T10:26:02;6.80;1.00
9527;DHT22;4802;51.494;6.770;2022-11-20T10:28:47;5.60;1.00
9527;DHT22;4802;51.494;6.770;2022-11-20T10:31:30;6.40;1.00
9527;DHT22;4802;51.494;6.770;2022-11-20T10:34:18;6.40;1.00
9527;DHT22;4802;51.494;6.770;2022-11-20T10:36:57;6.60;1.00
9527;DHT22;4802;51.494;6.770;2022-11-20T10:39:36;6.30;1.00
9527;DHT22;4802;51.494;6.770;2022-11-20T10:42:21;6.30;1.00
9527;DHT22;4802;51.494;6.770;2022-11-20T10:45:21;5.90;1.00
9527;DHT22;4802;51.494;6.770;2022-11-20T10:51:01;8.50;99.90
9527;DHT22;4802;51.494;6.770;2022-11-20T10:57:05;10.70;1.00
9527;DHT22;4802;51.494;6.770;2022-11-20T11:00:07;9.60;1.00
9527;DHT22;4802;51.494;6.770;2022-11-20T11:03:01;8.20;1.00
9527;DHT22;4802;51.494;6.770;2022-11-20T11:06:03;7.40;1.00
9527;DHT22;4802;51.494;6.770;2022-11-20T11:08:46;6.90;1.00
9527;DHT22;4802;51.494;6.770;2022-11-20T11:11:24;6.50;1.00
9527;DHT22;4802;51.494;6.770;2022-11-20T11:14:10;6.20;1.00
9527;DHT22;4802;51.494;6.770;2022-11-20T11:16:50;6.00;1.00
9527;DHT22;4802;51.494;6.770;2022-11-20T11:19:42;5.40;1.00
9527;DHT22;4802;51.494;6.770;2022-11-20T11:22:18;5.80;1.00
9527;DHT22;4802;51.494;6.770;2022-11-20T11:25:02;5.60;1.00
9527;DHT22;4802;51.494;6.770;2022-11-20T11:27:46;5.50;1.00
9527;DHT22;4802;51.494;6.770;2022-11-20T11:30:20;5.40;1.00
9527;DHT22;4802;51.494;6.770;2022-11-20T11:33:17;5.30;1.00
9527;DHT22;4802;51.494;6.770;2022-11-20T11:35:52;5.20;1.00
9527;DHT22;4802;51.494;6.770;2022-11-20T11:38:40;5.20;1.00
9527;DHT22;4802;51.494;6.770;2022-11-20T11:41:15;5.20;1.00
9527;DHT22;4802;51.494;6.770;2022-11-20T11:43:51;5.20;1.00
9527;DHT22;4802;51.494;6.770;2022-11-20T11:46:49;5.30;1.00
9527;DHT22;4802;51.494;6.770;2022-11-20T11:49:20;5.30;1.00
9527;DHT22;4802;51.494;6.770;2022-11-20T11:52:03;5.30;1.00
9527;DHT22;4802;51.494;6.770;2022-11-20T11:54:43;5.30;1.00
9527;DHT22;4802;51.494;6.770;2022-11-20T11:57:28;5.30;1.00
9527;DHT22;4802;51.494;6.770;2022-11-20T12:00:09;5.30;1.00
9527;DHT22;4802;51.494;6.770;2022-11-20T12:02:54;5.30;1.00
9527;DHT22;4802;51.494;6.770;2022-11-20T12:05:34;5.30;1.00
9527;DHT22;4802;51.494;6.770;2022-11-20T12:08:09;5.00;1.00
9527;DHT22;4802;51.494;6.770;2022-11-20T12:10:53;5.20;1.00
9527;DHT22;4802;51.494;6.770;2022-11-20T12:13:39;5.20;1.00
9527;DHT22;4802;51.494;6.770;2022-11-20T12:16:14;4.90;1.00
9527;DHT22;4802;51.494;6.770;2022-11-20T12:18:59;5.50;1.00
9527;DHT22;4802;51.494;6.770;2022-11-20T12:21:54;5.50;1.00
9527;DHT22;4802;51.494;6.770;2022-11-20T12:24:47;5.20;1.00
9527;DHT22;4802;51.494;6.770;2022-11-20T12:27:44;5.20;1.00
9527;DHT22;4802;51.494;6.770;2022-11-20T12:30:26;5.10;1.00
9527;DHT22;4802;51.494;6.770;2022-11-20T12:36:19;5.20;1.00
9527;DHT22;4802;51.494;6.770;2022-11-20T12:41:55;5.30;1.00
9527;DHT22;4802;51.494;6.770;2022-11-20T12:48:42;5.40;1.00
9527;DHT22;4802;51.494;6.770;2022-11-20T12:55:42;5.70;1.00
9527;DHT22;4802;51.494;6.770;2022-11-20T12:58:27;5.60;1.00
9527;DHT22;4802;51.494;6.770;2022-11-20T13:01:24;5.40;1.00
9527;DHT22;4802;51.494;6.770;2022-11-20T13:04:38;5.50;1.00
9527;DHT22;4802;51.494;6.770;2022-11-20T13:07:13;5.60;1.00
9527;DHT22;4802;51.494;6.770;2022-11-20T13:09:58;5.60;1.00
9527;DHT22;4802;51.494;6.770;2022-11-20T13:13:11;5.50;1.00
9527;DHT22;4802;51.494;6.770;2022-11-20T13:15:55;5.50;1.00
9527;DHT22;4802;51.494;6.770;2022-11-20T13:18:57;6.10;1.00
9527;DHT22;4802;51.494;6.770;2022-11-20T13:21:49;5.50;1.00
9527;DHT22;4802;51.494;6.770;2022-11-20T13:24:55;5.00;1.00
9527;DHT22;4802;51.494;6.770;2022-11-20T13:27:49;5.40;1.00
9527;DHT22;4802;51.494;6.770;2022-11-20T13:30:31;5.40;1.00
9527;DHT22;4802;51.494;6.770;2022-11-20T13:33:32;5.30;1.00
9527;DHT22;4802;51.494;6.770;2022-11-20T13:36:30;5.20;1.00
9527;DHT22;4802;51.494;6.770;2022-11-20T13:39:34;5.20;47.20
9527;DHT22;4802;51.494;6.770;2022-11-20T13:42:38;5.30;69.20
9527;DHT22;4802;51.494;6.770;2022-11-20T13:45:55;5.10;50.20
9527;DHT22;4802;51.494;6.770;2022-11-20T13:49:14;5.30;73.20
9527;DHT22;4802;51.494;6.770;2022-11-20T13:52:04;5.30;70.30
9527;DHT22;4802;51.494;6.770;2022-11-20T13:55:17;4.90;99.90
9527;DHT22;4802;51.494;6.770;2022-11-20T13:58:54;5.10;99.90
9527;DHT22;4802;51.494;6.770;2022-11-20T14:08:48;4.80;99.90
9527;DHT22;4802;51.494;6.770;2022-11-20T14:11:22;5.20;99.90
9527;DHT22;4802;51.494;6.770;2022-11-20T14:14:02;5.10;99.90
9527;DHT22;4802;51.494;6.770;2022-11-20T14:16:38;5.10;99.90
9527;DHT22;4802;51.494;6.770;2022-11-20T14:19:27;5.20;99.90
9527;DHT22;4802;51.494;6.770;2022-11-20T14:22:14;4.90;99.90
9527;DHT22;4802;51.494;6.770;2022-11-20T14:25:22;5.10;99.90
9527;DHT22;4802;51.494;6.770;2022-11-20T14:28:27;5.00;99.90
9527;DHT22;4802;51.494;6.770;2022-11-20T14:31:23;5.00;99.90
9527;DHT22;4802;51.494;6.770;2022-11-20T14:34:27;5.00;99.90
9527;DHT22;4802;51.494;6.770;2022-11-20T14:37:49;4.90;1.00
9527;DHT22;4802;51.494;6.770;2022-11-20T14:47:59;5.00;1.00
9527;DHT22;4802;51.494;6.770;2022-11-20T14:50:50;5.00;1.00
9527;DHT22;4802;51.494;6.770;2022-11-20T14:53:45;5.10;1.00
9527;DHT22;4802;51.494;6.770;2022-11-20T14:56:28;5.00;1.00
9527;DHT22;4802;51.494;6.770;2022-11-20T14:59:02;4.90;1.00
9527;DHT22;4802;51.494;6.770;2022-11-20T15:01:55;5.10;1.00
9527;DHT22;4802;51.494;6.770;2022-11-20T15:04:33;5.00;1.00
9527;DHT22;4802;51.494;6.770;2022-11-20T15:07:03;5.00;1.00
9527;DHT22;4802;51.494;6.770;2022-11-20T15:09:40;5.00;12.30
9527;DHT22;4802;51.494;6.770;2022-11-20T15:12:17;5.00;28.70
9527;DHT22;4802;51.494;6.770;2022-11-20T15:14:47;4.90;24.40
9527;DHT22;4802;51.494;6.770;2022-11-20T15:17:18;4.90;13.30
9527;DHT22;4802;51.494;6.770;2022-11-20T15:19:51;4.90;49.80
9527;DHT22;4802;51.494;6.770;2022-11-20T15:22:21;4.70;99.90
9527;DHT22;4802;51.494;6.770;2022-11-20T15:24:51;4.80;99.90
9527;DHT22;4802;51.494;6.770;2022-11-20T15:27:21;6.10;48.10
9527;DHT22;4802;51.494;6.770;2022-11-20T15:29:54;5.60;16.40
9527;DHT22;4802;51.494;6.770;2022-11-20T15:32:27;5.40;1.00
9527;DHT22;4802;51.494;6.770;2022-11-20T17:16:13;4.80;1.00
9527;DHT22;4802;51.494;6.770;2022-11-20T17:22:13;4.80;99.90
9527;DHT22;4802;51.494;6.770;2022-11-20T17:25:13;5.00;99.90
9527;DHT22;4802;51.494;6.770;2022-11-20T17:28:12;4.70;99.90
9527;DHT22;4802;51.494;6.770;2022-11-20T17:31:04;4.70;99.90
9527;DHT22;4802;51.494;6.770;2022-11-20T17:37:46;4.80;99.90
9527;DHT22;4802;51.494;6.770;2022-11-20T17:40:33;4.70;99.90
9527;DHT22;4802;51.494;6.770;2022-11-20T17:43:17;4.80;99.90
9527;DHT22;4802;51.494;6.770;2022-11-20T17:45:52;5.20;99.90
9527;DHT22;4802;51.494;6.770;2022-11-20T17:48:29;5.00;99.90
9527;DHT22;4802;51.494;6.770;2022-11-20T17:51:06;5.00;99.90
9527;DHT22;4802;51.494;6.770;2022-11-20T17:54:23;5.10;99.90
9527;DHT22;4802;51.494;6.770;2022-11-20T17:57:01;5.10;99.90
9527;DHT22;4802;51.494;6.770;2022-11-20T18:00:00;5.20;99.90
9527;DHT22;4802;51.494;6.770;2022-11-20T18:02:47;4.70;99.90
9527;DHT22;4802;51.494;6.770;2022-11-20T18:05:20;5.30;99.90
9527;DHT22;4802;51.494;6.770;2022-11-20T18:08:06;5.30;99.90
9527;DHT22;4802;51.494;6.770;2022-11-20T18:33:29;5.90;99.90
9527;DHT22;4802;51.494;6.770;2022-11-20T18:40:39;6.10;99.90
9527;DHT22;4802;51.494;6.770;2022-11-20T18:43:41;6.10;99.90
9527;DHT22;4802;51.494;6.770;2022-11-20T18:47:01;6.20;99.90
9527;DHT22;4802;51.494;6.770;2022-11-20T19:30:23;6.70;99.90
9527;DHT22;4802;51.494;6.770;2022-11-20T19:33:12;6.40;99.90
9527;DHT22;4802;51.494;6.770;2022-11-20T19:36:18;6.70;99.90
9527;DHT22;4802;51.494;6.770;2022-11-20T19:39:41;6.80;99.90
9527;DHT22;4802;51.494;6.770;2022-11-20T19:42:56;6.90;99.90
9527;DHT22;4802;51.494;6.770;2022-11-20T19:45:51;7.00;99.90
9527;DHT22;4802;51.494;6.770;2022-11-20T19:48:43;7.00;99.90
9527;DHT22;4802;51.494;6.770;2022-11-20T19:51:46;6.90;99.90
9527;DHT22;4802;51.494;6.770;2022-11-20T19:54:25;7.00;99.90
9527;DHT22;4802;51.494;6.770;2022-11-20T19:57:29;7.10;99.90
9527;DHT22;4802;51.494;6.770;2022-11-20T20:00:20;7.10;99.90
9527;DHT22;4802;51.494;6.770;2022-11-20T20:03:20;7.20;99.90
9527;DHT22;4802;51.494;6.770;2022-11-20T20:06:24;7.30;99.90
9527;DHT22;4802;51.494;6.770;2022-11-20T20:09:18;7.30;99.90
9527;DHT22;4802;51.494;6.770;2022-11-20T20:12:14;7.30;99.90
9527;DHT22;4802;51.494;6.770;2022-11-20T20:15:17;7.30;99.90
9527;DHT22;4802;51.494;6.770;2022-11-20T20:21:41;7.40;99.90
9527;DHT22;4802;51.494;6.770;2022-11-20T20:24:41;7.30;99.90
9527;DHT22;4802;51.494;6.770;2022-11-20T20:27:30;7.40;99.90
9527;DHT22;4802;51.494;6.770;2022-11-20T20:30:27;7.30;99.90
9527;DHT22;4802;51.494;6.770;2022-11-20T20:33:25;6.90;99.90
9527;DHT22;4802;51.494;6.770;2022-11-20T20:53:46;7.40;99.90
9527;DHT22;4802;51.494;6.770;2022-11-20T20:56:35;7.00;99.90
9527;DHT22;4802;51.494;6.770;2022-11-20T20:59:31;7.00;99.90
9527;DHT22;4802;51.494;6.770;2022-11-20T21:02:28;6.90;99.90
9527;DHT22;4802;51.494;6.770;2022-11-20T21:05:04;6.80;99.90
9527;DHT22;4802;51.494;6.770;2022-11-20T21:07:34;6.80;99.90
9527;DHT22;4802;51.494;6.770;2022-11-20T21:10:19;6.80;99.90
9527;DHT22;4802;51.494;6.770;2022-11-20T21:12:52;6.70;99.90
9527;DHT22;4802;51.494;6.770;2022-11-20T21:15:30;6.70;99.90
9527;DHT22;4802;51.494;6.770;2022-11-20T21:18:15;6.70;99.90
9527;DHT22;4802;51.494;6.770;2022-11-20T21:20:46;7.00;99.90
9527;DHT22;4802;51.494;6.770;2022-11-20T21:23:33;7.00;99.90
9527;DHT22;4802;51.494;6.770;2022-11-20T21:26:16;6.80;99.90
9527;DHT22;4802;51.494;6.770;2022-11-20T21:28:51;6.40;99.90
9527;DHT22;4802;51.494;6.770;2022-11-20T21:31:32;7.00;99.90
9527;DHT22;4802;51.494;6.770;2022-11-20T21:34:05;6.50;99.90
9527;DHT22;4802;51.494;6.770;2022-11-20T21:36:39;6.50;99.90
9527;DHT22;4802;51.494;6.770;2022-11-20T21:39:10;6.50;99.90
9527;DHT22;4802;51.494;6.770;2022-11-20T21:42:29;6.40;99.90
9527;DHT22;4802;51.494;6.770;2022-11-20T21:45:01;6.40;99.90
9527;DHT22;4802;51.494;6.770;2022-11-20T21:47:31;6.30;99.90
9527;DHT22;4802;51.494;6.770;2022-11-20T21:50:20;6.30;99.90
9527;DHT22;4802;51.494;6.770;2022-11-20T21:52:52;6.30;99.90
9527;DHT22;4802;51.494;6.770;2022-11-20T21:55:30;6.20;99.90
9527;DHT22;4802;51.494;6.770;2022-11-20T21:58:07;6.10;99.90
9527;DHT22;4802;51.494;6.770;2022-11-20T22:00:39;6.10;99.90
9527;DHT22;4802;51.494;6.770;2022-11-20T22:03:09;6.40;99.90
9527;DHT22;4802;51.494;6.770;2022-11-20T22:05:54;5.70;99.90
9527;DHT22;4802;51.494;6.770;2022-11-20T22:08:37;6.00;99.90
9527;DHT22;4802;51.494;6.770;2022-11-20T22:11:12;5.90;99.90
9527;DHT22;4802;51.494;6.770;2022-11-20T22:14:08;5.80;99.90
9527;DHT22;4802;51.494;6.770;2022-11-20T22:16:54;5.80;99.90
9527;DHT22;4802;51.494;6.770;2022-11-20T22:19:29;5.70;99.90
9527;DHT22;4802;51.494;6.770;2022-11-20T22:22:00;5.70;99.90
9527;DHT22;4802;51.494;6.770;2022-11-20T22:24:39;5.90;99.90
9527;DHT22;4802;51.494;6.770;2022-11-20T22:27:26;5.60;99.90
9527;DHT22;4802;51.494;6.770;2022-11-20T22:29:58;5.60;99.90
9527;DHT22;4802;51.494;6.770;2022-11-20T22:32:32;5.50;99.90
9527;DHT22;4802;51.494;6.770;2022-11-20T22:35:05;5.10;99.90
9527;DHT22;4802;51.494;6.770;2022-11-20T22:37:35;5.40;99.90